Ackworth, IA

11:08 AM CST on November 23, 2014 (GMT -0600)
Rural Pleasantville | Change Station
CLOSE
Current Station
Personal Weather Station
Location: Pleasantville, IA
Elevation: 843 ft
Nearby Weather Stations

Elev 843 ft 41.36 °N, 93.27 °W | Updated 14 minutes ago

Overcast
Overcast
52.9 °F
Feels Like 52.9 °F
N
1.1
Wind Variable Wind from SSE

Today
High -- | Low -- °F
--% Chance of Precip.
Yesterday
High -- | Low -- °F
Precip. -- in
7:11 AM 4:48 PM
New Moon, 2% visible
Pressure 29.46 in
Visibility 1.2 miles
Clouds Overcast 300 ft
Dew Point 50 °F
Humidity 91%
Rainfall 0.20 in
Snow Depth Not available.
UV 1 out of 12
Pollen .10 out of 12
Air Quality Not available.
Flu Activity Not available.
METAR KOXV 231655Z AUTO 16007KT 1 1/4SM -RA OVC003 11/10 A2946 RMK AO2 P0012

More Conditions Fewer Conditions

Pressure 29.46 in
Visibility 1.2 miles
Clouds Overcast 300 ft
Dew Point 50 °F
Humidity 91%
Rainfall 0.20 in
Snow Depth Not available.
UV 1 out of 12
Pollen .10 out of 12
Air Quality Not available.
Flu Activity Not available.
METAR KOXV 231655Z AUTO 16007KT 1 1/4SM -RA OVC003 11/10 A2946 RMK AO2 P0012

More Conditions Fewer Conditions

10-Day Weather Forecast

Almanac

Astronomy

Nov. 23, 2014 Rise Set
Actual Time
Civil Twilight
Nautical Twilight
Astronomical Twilight
Moon
Length of Visible Light
Length of Day
Tomorrow will be .
, % of the Moon is Illuminated

Today's Extremes

State Highs State Lows

Community

WunderPhotos

Upload Photos

1,773,098 photos uploaded!

WunderBlogs® & News

Nearby

Air Quality

  Air Quality AQ Index Pollutant
Not available.

Snow Depth

Station Depth Elevation

Earthquake Activity

City Distance Mag. Time & Date
Minimum magnitude displayed is 2.5.

Coastal Water Temperatures

Place Temperature

Nearby Weather Stations